Time;durP1;ratioP1;P1;durP2;ratioP2;P2;SDS_P1;SDS_P2;PMS_P1;PMS_P2;Temp;Humidity;BMP_temperature;BMP_pressure;BME280_temperature;BME280_humidity;BME280_pressure;Samples;Min_cycle;Max_cycle;Signal;HPM_P1;HPM_P2
2024/04/14 00:02:18;;;;;;;20.98;4.97;;;13.50;99.90;;;;;;11386948;25;20012;-58
2024/04/14 00:07:22;;;;;;;20.83;3.85;;;14.00;99.90;;;;;;11405219;25;20073;-58
2024/04/14 00:12:28;;;;;;;21.35;2.22;;;14.20;99.90;;;;;;11395233;25;20387;-56
2024/04/14 00:17:35;;;;;;;17.75;3.67;;;13.80;99.90;;;;;;11405400;25;20816;-58
2024/04/14 00:22:43;;;;;;;17.35;3.03;;;13.70;99.90;;;;;;11396776;25;20486;-59
2024/04/14 00:27:52;;;;;;;15.35;2.53;;;13.80;99.90;;;;;;11399231;25;20036;-58
2024/04/14 00:33:03;;;;;;;11.98;2.67;;;13.70;99.90;;;;;;11387824;25;20049;-60
2024/04/14 00:38:16;;;;;;;8.77;2.38;;;13.90;99.90;;;;;;11399536;25;20014;-58
2024/04/14 00:43:25;;;;;;;5.47;1.20;;;14.30;99.90;;;;;;11399905;25;20150;-59
2024/04/14 00:48:34;;;;;;;8.73;2.47;;;14.90;99.90;;;;;;11387548;25;19998;-57
2024/04/14 00:53:38;;;;;;;11.95;2.25;;;15.10;99.90;;;;;;11391668;25;20001;-59
2024/04/14 00:58:52;;;;;;;9.43;1.42;;;15.10;99.90;;;;;;11391410;25;20295;-58
2024/04/14 01:04:00;;;;;;;17.67;1.67;;;14.80;99.90;;;;;;11394401;25;20021;-57
2024/04/14 01:09:05;;;;;;;13.45;2.40;;;14.50;99.90;;;;;;11398886;25;20471;-60
2024/04/14 01:14:11;;;;;;;16.40;1.75;;;14.40;99.90;;;;;;11412111;25;20010;-57
2024/04/14 01:19:24;;;;;;;16.40;2.50;;;14.60;99.90;;;;;;11401849;25;20135;-60
2024/04/14 01:24:28;;;;;;;10.18;1.92;;;;;;;;;;11397219;25;20006;-58
2024/04/14 01:29:35;;;;;;;13.93;1.63;;;;;;;;;;11397223;25;20054;-60
2024/04/14 01:34:40;;;;;;;9.15;1.60;;;;;;;;;;11395394;25;20009;-60
2024/04/14 01:39:44;;;;;;;8.75;1.65;;;;;;;;;;11391231;25;20023;-58
2024/04/14 01:44:51;;;;;;;13.85;2.60;;;15.80;99.90;;;;;;11388884;25;20028;-58
2024/04/14 01:49:56;;;;;;;7.72;1.35;;;;;;;;;;11395405;25;20009;-59
2024/04/14 01:55:00;;;;;;;15.70;2.20;;;;;;;;;;11391180;25;20040;-58
2024/04/14 02:00:10;;;;;;;8.70;1.40;;;;;;;;;;11408346;25;20025;-59
2024/04/14 02:05:16;;;;;;;13.77;1.85;;;;;;;;;;11397768;25;20030;-57
2024/04/14 02:10:22;;;;;;;10.73;2.03;;;;;;;;;;11393053;25;20013;-58
2024/04/14 02:15:33;;;;;;;12.73;1.70;;;;;;;;;;11398701;25;20369;-57
2024/04/14 02:20:37;;;;;;;12.00;2.00;;;;;;;;;;11397198;25;20044;-60
2024/04/14 02:25:43;;;;;;;16.27;2.15;;;;;;;;;;11397753;25;20006;-56
2024/04/14 02:30:50;;;;;;;20.67;2.15;;;;;;;;;;11396995;25;20009;-58
2024/04/14 02:35:56;;;;;;;14.32;2.17;;;;;;;;;;11406288;25;20472;-59
2024/04/14 02:41:03;;;;;;;12.45;1.77;;;;;;;;;;11399484;25;20080;-57
2024/04/14 02:46:17;;;;;;;13.57;1.80;;;;;;;;;;11406347;25;20016;-58
2024/04/14 02:51:24;;;;;;;12.82;2.17;;;;;;;;;;11405846;25;20016;-59
2024/04/14 02:56:29;;;;;;;6.28;1.48;;;;;;;;;;11392067;25;20015;-58
2024/04/14 03:01:36;;;;;;;12.55;1.58;;;;;;;;;;11403602;25;20084;-59
2024/04/14 03:06:43;;;;;;;13.50;1.80;;;;;;;;;;11397364;25;20232;-60
2024/04/14 03:11:50;;;;;;;11.02;1.77;;;;;;;;;;11401919;25;20134;-58
2024/04/14 03:16:57;;;;;;;15.20;2.03;;;;;;;;;;11410976;25;20014;-58
2024/04/14 03:22:04;;;;;;;13.48;1.65;;;;;;;;;;11420426;25;20466;-60
2024/04/14 03:27:08;;;;;;;22.00;3.53;;;;;;;;;;11414277;25;20023;-59
2024/04/14 03:32:18;;;;;;;10.35;1.80;;;;;;;;;;11407401;25;20009;-58
2024/04/14 03:37:22;;;;;;;19.30;2.85;;;;;;;;;;11407211;25;20415;-59
2024/04/14 03:42:27;;;;;;;16.17;2.78;;;;;;;;;;11403879;25;20012;-59
2024/04/14 03:47:38;;;;;;;11.38;1.45;;;;;;;;;;11404255;25;20004;-59
2024/04/14 03:52:43;;;;;;;9.57;1.58;;;;;;;;;;11410490;25;20100;-59
2024/04/14 03:57:51;;;;;;;14.35;1.80;;;;;;;;;;11425026;25;20015;-59
2024/04/14 04:03:01;;;;;;;12.57;1.88;;;;;;;;;;11397771;25;20005;-59
2024/04/14 04:08:05;;;;;;;12.55;2.10;;;;;;;;;;11408392;25;20108;-58
2024/04/14 04:13:10;;;;;;;11.27;1.80;;;;;;;;;;11407588;25;20002;-59
2024/04/14 04:18:17;;;;;;;13.63;1.65;;;;;;;;;;11406658;25;20000;-57
2024/04/14 04:23:21;;;;;;;16.95;2.17;;;;;;;;;;11399024;25;20001;-58
2024/04/14 04:28:27;;;;;;;17.13;2.13;;;;;;;;;;11414753;25;20011;-57
2024/04/14 04:33:39;;;;;;;12.18;2.10;;;;;;;;;;11411452;25;20024;-55
2024/04/14 04:38:45;;;;;;;17.30;2.72;;;16.20;99.90;;;;;;11407527;25;20012;-58
2024/04/14 04:43:50;;;;;;;12.45;2.20;;;15.70;99.90;;;;;;11394708;25;20431;-58
2024/04/14 04:48:57;;;;;;;17.85;2.55;;;16.10;99.90;;;;;;11402379;25;20013;-58
2024/04/14 04:54:04;;;;;;;10.38;2.15;;;15.90;99.90;;;;;;11400597;25;20028;-58
2024/04/14 04:59:10;;;;;;;8.07;1.90;;;16.00;99.90;;;;;;11392107;25;20017;-61
2024/04/14 05:04:16;;;;;;;8.80;1.90;;;15.30;99.90;;;;;;11399862;25;20057;-59
2024/04/14 05:09:27;;;;;;;7.85;1.20;;;15.20;99.90;;;;;;11387908;25;20122;-59
2024/04/14 05:14:32;;;;;;;13.13;1.80;;;14.60;99.90;;;;;;11397028;25;20154;-58
2024/04/14 05:19:38;;;;;;;9.45;1.38;;;14.90;99.90;;;;;;11402572;25;20692;-57
2024/04/14 05:24:46;;;;;;;7.53;2.10;;;16.30;99.90;;;;;;11400892;25;20037;-57
2024/04/14 05:29:50;;;;;;;12.05;2.22;;;16.10;99.90;;;;;;11386085;25;20010;-57
2024/04/14 05:34:57;;;;;;;9.05;1.50;;;16.70;99.90;;;;;;11395096;25;20057;-59
2024/04/14 05:40:03;;;;;;;7.80;1.33;;;15.30;99.90;;;;;;11382862;25;20013;-59
2024/04/14 05:45:13;;;;;;;5.80;1.15;;;15.80;99.90;;;;;;11390256;25;20017;-58
2024/04/14 05:50:20;;;;;;;5.90;1.10;;;14.90;99.90;;;;;;11403786;25;20016;-57
2024/04/14 05:55:24;;;;;;;7.93;1.02;;;14.40;99.90;;;;;;11402816;25;20013;-59
2024/04/14 06:00:28;;;;;;;9.85;1.58;;;14.90;99.90;;;;;;11381986;25;20017;-59
2024/04/14 06:05:39;;;;;;;7.95;1.20;;;14.10;99.90;;;;;;11389534;25;20026;-56
2024/04/14 06:10:44;;;;;;;6.82;1.20;;;14.20;99.90;;;;;;11400525;25;20013;-59
2024/04/14 06:15:48;;;;;;;9.95;1.52;;;;;;;;;;11397443;25;20009;-58
2024/04/14 06:20:55;;;;;;;6.18;0.85;;;;;;;;;;11404237;25;20006;-56
2024/04/14 06:26:00;;;;;;;4.88;1.08;;;;;;;;;;11390842;25;20013;-59
2024/04/14 06:31:04;;;;;;;8.80;1.77;;;;;;;;;;11384579;25;20005;-60
2024/04/14 06:36:11;;;;;;;5.80;1.90;;;;;;;;;;11389326;25;20052;-57
2024/04/14 06:41:16;;;;;;;5.55;1.08;;;;;;;;;;11392745;25;20037;-59
2024/04/14 06:46:20;;;;;;;8.43;1.02;;;;;;;;;;11396025;25;20006;-58
2024/04/14 06:51:30;;;;;;;6.00;0.90;;;;;;;;;;11399311;25;20017;-57
2024/04/14 06:56:35;;;;;;;3.22;0.73;;;;;;;;;;11382761;25;20012;-59
2024/04/14 07:01:40;;;;;;;2.25;0.60;;;;;;;;;;11380623;25;20030;-57
2024/04/14 07:06:52;;;;;;;5.68;1.17;;;;;;;;;;11398362;25;20035;-57
2024/04/14 07:11:57;;;;;;;6.13;1.33;;;;;;;;;;11401407;25;20028;-58
2024/04/14 07:17:04;;;;;;;5.88;1.33;;;;;;;;;;11401195;25;20069;-58
2024/04/14 07:22:11;;;;;;;8.15;1.30;;;;;;;;;;11389652;25;20009;-61
2024/04/14 07:27:17;;;;;;;6.78;1.13;;;;;;;;;;11400586;25;20085;-60
2024/04/14 07:32:22;;;;;;;6.70;1.05;;;;;;;;;;11382018;25;20020;-56
2024/04/14 07:37:29;;;;;;;8.45;1.85;;;;;;;;;;11382821;25;20031;-59
2024/04/14 07:42:33;;;;;;;3.28;0.80;;;;;;;;;;11371419;25;20005;-60
2024/04/14 07:47:37;;;;;;;5.55;1.17;;;;;;;;;;11383006;25;20367;-57
2024/04/14 07:52:44;;;;;;;7.40;0.90;;;;;;;;;;11381980;25;20014;-59
2024/04/14 07:57:53;;;;;;;4.55;1.00;;;;;;;;;;11380983;25;20008;-59
2024/04/14 08:02:57;;;;;;;7.45;1.55;;;;;;;;;;11381954;25;21139;-59
2024/04/14 08:08:05;;;;;;;7.03;1.55;;;;;;;;;;11385395;25;20477;-58
2024/04/14 08:13:12;;;;;;;2.08;0.60;;;;;;;;;;11375068;25;23013;-58
2024/04/14 08:18:23;;;;;;;6.22;1.35;;;;;;;;;;11392984;25;20010;-58
2024/04/14 08:23:32;;;;;;;14.73;1.70;;;;;;;;;;11374319;25;20024;-57
2024/04/14 08:28:38;;;;;;;7.75;1.60;;;;;;;;;;11386211;25;20138;-57
2024/04/14 08:33:44;;;;;;;5.18;0.75;;;;;;;;;;11391849;25;20018;-58
2024/04/14 08:38:52;;;;;;;7.45;1.23;;;;;;;;;;11384458;25;20025;-57
2024/04/14 08:43:59;;;;;;;3.88;1.00;;;;;;;;;;11371495;25;20033;-58
2024/04/14 08:49:03;;;;;;;7.95;1.10;;;;;;;;;;11380712;25;20005;-58
2024/04/14 08:54:13;;;;;;;6.80;1.13;;;;;;;;;;11363351;25;20716;-58
2024/04/14 08:59:18;;;;;;;7.32;0.90;;;;;;;;;;11370729;25;20828;-59
2024/04/14 09:04:24;;;;;;;7.22;1.40;;;;;;;;;;11365869;25;20041;-59
2024/04/14 09:09:32;;;;;;;3.03;0.93;;;;;;;;;;11382646;25;20675;-58
2024/04/14 09:14:36;;;;;;;6.25;1.52;;;;;;;;;;11386573;25;20012;-60
2024/04/14 09:19:42;;;;;;;6.10;1.48;;;;;;;;;;11370115;25;21189;-57
2024/04/14 09:24:49;;;;;;;6.15;1.42;;;;;;;;;;11384209;25;20464;-61
2024/04/14 09:29:57;;;;;;;6.97;1.25;;;;;;;;;;11393372;25;20055;-60
2024/04/14 09:35:04;;;;;;;9.45;1.30;;;;;;;;;;11394010;25;20022;-59
2024/04/14 09:40:12;;;;;;;14.32;1.40;;;;;;;;;;11394149;25;20345;-55
2024/04/14 09:45:17;;;;;;;5.07;1.17;;;;;;;;;;11389331;25;20012;-60
2024/04/14 09:50:25;;;;;;;12.27;1.77;;;;;;;;;;11398719;25;20038;-60
2024/04/14 09:55:32;;;;;;;9.38;1.27;;;;;;;;;;11396795;25;23527;-60
2024/04/14 10:00:37;;;;;;;7.35;1.27;;;;;;;;;;11394796;25;20489;-59
2024/04/14 10:05:43;;;;;;;6.47;1.30;;;;;;;;;;11375917;25;20025;-58
2024/04/14 10:10:50;;;;;;;7.30;1.33;;;;;;;;;;11379061;25;20032;-58
2024/04/14 10:16:02;;;;;;;9.05;1.23;;;;;;;;;;11381990;25;20875;-57
2024/04/14 10:21:06;;;;;;;9.13;1.45;;;;;;;;;;11400836;25;20776;-60
2024/04/14 10:26:17;;;;;;;10.43;1.60;;;;;;;;;;11388987;25;20010;-60
2024/04/14 10:31:28;;;;;;;6.53;2.08;;;;;;;;;;11382714;25;21011;-60
2024/04/14 10:36:33;;;;;;;14.10;1.77;;;;;;;;;;11379318;25;20020;-59
2024/04/14 10:41:40;;;;;;;11.25;1.33;;;;;;;;;;11394539;25;20685;-60
2024/04/14 10:46:45;;;;;;;8.25;1.67;;;;;;;;;;11387840;25;20972;-59
2024/04/14 10:51:49;;;;;;;15.98;1.50;;;;;;;;;;11390849;25;20005;-59
2024/04/14 10:56:59;;;;;;;7.38;1.80;;;;;;;;;;11394922;25;20859;-59
2024/04/14 11:02:04;;;;;;;4.47;0.75;;;;;;;;;;11392591;25;20020;-60
2024/04/14 11:07:09;;;;;;;8.18;1.60;;;;;;;;;;11377271;25;20017;-59
2024/04/14 11:12:16;;;;;;;12.60;1.67;;;;;;;;;;11363249;25;20016;-60
2024/04/14 11:17:20;;;;;;;9.10;2.03;;;;;;;;;;11384464;25;20136;-59
2024/04/14 11:22:25;;;;;;;11.70;2.20;;;;;;;;;;11384348;25;20021;-59
2024/04/14 11:27:32;;;;;;;9.43;2.33;;;;;;;;;;11396477;25;20019;-60
2024/04/14 11:32:40;;;;;;;8.60;2.55;;;;;;;;;;11393421;25;20009;-59
2024/04/14 11:37:48;;;;;;;4.68;1.02;;;;;;;;;;11380324;25;20017;-56
2024/04/14 11:42:57;;;;;;;13.20;2.30;;;;;;;;;;11379728;25;20005;-57
2024/04/14 11:48:14;;;;;;;9.68;2.38;;;;;;;;;;11375161;25;20971;-60
2024/04/14 11:53:19;;;;;;;11.45;2.50;;;;;;;;;;11376623;25;20356;-59
2024/04/14 11:58:26;;;;;;;11.82;2.80;;;;;;;;;;11378931;25;20071;-57
2024/04/14 12:03:30;;;;;;;15.38;2.72;;;;;;;;;;11370958;25;20005;-59
2024/04/14 12:08:35;;;;;;;9.63;2.40;;;;;;;;;;11374579;25;20768;-60
2024/04/14 12:13:45;;;;;;;13.23;1.92;;;;;;;;;;11380380;25;20151;-58
2024/04/14 12:18:50;;;;;;;9.60;1.60;;;;;;;;;;11370147;25;20006;-58
2024/04/14 12:23:54;;;;;;;13.30;2.10;;;;;;;;;;11384615;25;20005;-59
2024/04/14 12:29:02;;;;;;;16.23;2.85;;;;;;;;;;11368680;25;20016;-60
2024/04/14 12:34:06;;;;;;;12.25;1.45;;;;;;;;;;11386683;25;20357;-60
2024/04/14 12:39:11;;;;;;;17.08;2.40;;;;;;;;;;11384336;25;20028;-59
2024/04/14 12:44:19;;;;;;;13.63;2.20;;;;;;;;;;11393520;25;20247;-60
2024/04/14 12:49:26;;;;;;;4.93;1.38;;;;;;;;;;11388904;25;20016;-60
2024/04/14 12:54:30;;;;;;;12.65;1.80;;;;;;;;;;11383640;25;20006;-60
2024/04/14 12:59:37;;;;;;;2.08;0.60;;;;;;;;;;11392498;25;20056;-60
2024/04/14 13:04:43;;;;;;;3.67;0.77;;;;;;;;;;11394251;25;20005;-60
2024/04/14 13:09:47;;;;;;;9.43;1.92;;;;;;;;;;11386423;25;20017;-60
2024/04/14 13:14:54;;;;;;;6.65;1.33;;;;;;;;;;11396469;25;20023;-60
2024/04/14 13:20:00;;;;;;;4.65;0.98;;;;;;;;;;11389958;25;20037;-59
2024/04/14 13:25:05;;;;;;;13.13;1.95;;;;;;;;;;11390485;25;20013;-61
2024/04/14 13:30:15;;;;;;;8.93;1.35;;;;;;;;;;11392327;25;20038;-60
2024/04/14 13:35:20;;;;;;;13.30;1.50;;;;;;;;;;11394568;25;20519;-60
2024/04/14 13:40:24;;;;;;;6.47;1.27;;;;;;;;;;11381934;25;20005;-61
2024/04/14 13:45:31;;;;;;;4.88;0.85;;;;;;;;;;11381268;25;20008;-60
2024/04/14 13:50:38;;;;;;;14.48;2.22;;;;;;;;;;11376117;25;20060;-60
2024/04/14 13:55:42;;;;;;;6.05;1.10;;;;;;;;;;11383999;25;20763;-60
2024/04/14 14:00:49;;;;;;;6.70;1.05;;;;;;;;;;11378040;25;20010;-59
2024/04/14 14:05:54;;;;;;;7.68;1.42;;;;;;;;;;11384477;25;20368;-59
2024/04/14 14:11:00;;;;;;;5.95;1.20;;;;;;;;;;11382411;25;20001;-59
2024/04/14 14:16:08;;;;;;;4.90;1.13;;;;;;;;;;11404541;25;20125;-57
2024/04/14 14:21:13;;;;;;;9.93;1.48;;;;;;;;;;11406095;25;20026;-60
2024/04/14 14:26:19;;;;;;;7.47;1.65;;;;;;;;;;11403067;25;20035;-59
2024/04/14 14:31:26;;;;;;;4.95;1.15;;;;;;;;;;11392757;25;20009;-57
2024/04/14 14:36:33;;;;;;;5.65;1.08;;;;;;;;;;11365451;25;20102;-59
2024/04/14 14:41:40;;;;;;;6.03;0.88;;;;;;;;;;11377486;25;20017;-59
2024/04/14 14:46:47;;;;;;;7.70;1.23;;;;;;;;;;11382418;25;20006;-59
2024/04/14 14:51:51;;;;;;;7.90;1.35;;;;;;;;;;11380170;25;20013;-58
2024/04/14 14:56:55;;;;;;;5.50;0.88;;;;;;;;;;11381917;25;20016;-57
2024/04/14 15:02:02;;;;;;;6.47;1.10;;;;;;;;;;11380288;25;20548;-58
2024/04/14 15:07:07;;;;;;;4.90;1.67;;;;;;;;;;11372555;25;20889;-58
2024/04/14 15:12:11;;;;;;;5.68;0.77;;;;;;;;;;11375033;25;20113;-59
2024/04/14 15:17:19;;;;;;;12.60;1.60;;;;;;;;;;11378693;25;20013;-59
2024/04/14 15:22:26;;;;;;;5.18;1.00;;;;;;;;;;11380433;25;20017;-59
2024/04/14 15:27:30;;;;;;;9.15;1.50;;;;;;;;;;11384248;25;20010;-59
2024/04/14 15:32:40;;;;;;;10.27;1.23;;;;;;;;;;11364751;25;20012;-61
2024/04/14 15:37:45;;;;;;;9.05;1.25;;;;;;;;;;11380218;25;20104;-59
2024/04/14 15:42:49;;;;;;;9.95;1.85;;;;;;;;;;11384255;25;20532;-59
2024/04/14 15:47:56;;;;;;;5.97;1.30;;;;;;;;;;11380840;25;20016;-60
2024/04/14 15:53:03;;;;;;;7.03;1.50;;;;;;;;;;11385088;25;20098;-59
2024/04/14 15:58:08;;;;;;;4.45;1.10;;;;;;;;;;11383627;25;20017;-61
2024/04/14 16:03:16;;;;;;;8.40;1.80;;;;;;;;;;11384727;25;20020;-59
2024/04/14 16:08:20;;;;;;;7.30;1.10;;;;;;;;;;11378863;25;20013;-60
2024/04/14 16:13:25;;;;;;;5.68;1.48;;;;;;;;;;11385976;25;20021;-61
2024/04/14 16:18:32;;;;;;;7.45;1.00;;;;;;;;;;11383881;25;20081;-61
2024/04/14 16:23:41;;;;;;;6.70;1.20;;;;;;;;;;11380080;25;20024;-60
2024/04/14 16:28:49;;;;;;;7.13;1.33;;;;;;;;;;11382727;25;20942;-60
2024/04/14 16:33:57;;;;;;;5.50;1.20;;;;;;;;;;11386853;25;20017;-62
2024/04/14 16:39:03;;;;;;;6.43;1.10;;;;;;;;;;11383470;25;20023;-60
2024/04/14 16:44:10;;;;;;;9.45;1.52;;;;;;;;;;11376660;25;20009;-59
2024/04/14 16:49:17;;;;;;;6.50;1.00;;;;;;;;;;11373662;25;20026;-60
2024/04/14 16:54:21;;;;;;;6.57;1.13;;;;;;;;;;11379545;25;20005;-59
2024/04/14 16:59:26;;;;;;;4.57;1.10;;;;;;;;;;11381384;25;20033;-61
2024/04/14 17:04:33;;;;;;;6.65;1.50;;;;;;;;;;11373697;25;20111;-61
2024/04/14 17:09:37;;;;;;;4.38;0.90;;;;;;;;;;11377465;25;20016;-61
2024/04/14 17:14:41;;;;;;;4.60;1.00;;;;;;;;;;11375533;25;20013;-61
2024/04/14 17:19:52;;;;;;;5.97;1.23;;;;;;;;;;11374794;25;20013;-60
2024/04/14 17:25:06;;;;;;;7.78;1.52;;;;;;;;;;11366858;25;20092;-60
2024/04/14 17:30:11;;;;;;;9.88;1.25;;;;;;;;;;11369432;25;20005;-58
2024/04/14 17:35:18;;;;;;;8.20;1.67;;;;;;;;;;11370239;25;20082;-59
2024/04/14 17:40:22;;;;;;;4.32;1.25;;;;;;;;;;11375745;25;20012;-60
2024/04/14 17:45:26;;;;;;;6.53;1.38;;;;;;;;;;11376229;25;20076;-59
2024/04/14 17:50:37;;;;;;;5.15;1.08;;;;;;;;;;11374834;25;20473;-59
2024/04/14 17:55:44;;;;;;;11.35;1.80;;;;;;;;;;11231027;26;20084;-60
2024/04/14 18:00:51;;;;;;;7.95;1.40;;;;;;;;;;11248646;26;20819;-59
2024/04/14 18:05:58;;;;;;;10.98;1.92;;;;;;;;;;11228749;26;20018;-59
2024/04/14 18:11:03;;;;;;;12.15;2.47;;;;;;;;;;11236555;26;20054;-59
2024/04/14 18:16:08;;;;;;;5.50;1.13;;;;;;;;;;11231713;26;20774;-61
2024/04/14 18:21:15;;;;;;;10.95;2.20;;;;;;;;;;11231606;26;20715;-60
2024/04/14 18:26:22;;;;;;;6.32;1.50;;;;;;;;;;11230277;26;20530;-62
2024/04/14 18:31:27;;;;;;;12.52;1.80;;;;;;;;;;11241527;26;20019;-60
2024/04/14 18:36:34;;;;;;;11.50;1.80;;;;;;;;;;11224652;26;20034;-61
2024/04/14 18:41:40;;;;;;;8.60;2.70;;;;;;;;;;11248388;26;20054;-60
2024/04/14 18:46:45;;;;;;;6.18;1.30;;;;;;;;;;11227207;26;20699;-62
2024/04/14 18:51:53;;;;;;;7.65;2.13;;;;;;;;;;11271908;25;20017;-61
2024/04/14 18:56:58;;;;;;;8.77;1.73;;;;;;;;;;11386396;25;20017;-62
2024/04/14 19:02:11;;;;;;;4.40;1.38;;;;;;;;;;11383962;25;20013;-61
2024/04/14 19:07:21;;;;;;;5.22;1.38;;;;;;;;;;11381645;25;23602;-60
2024/04/14 19:12:26;;;;;;;5.18;1.40;;;;;;;;;;11381947;25;20005;-60
2024/04/14 19:17:31;;;;;;;6.45;1.30;;;;;;;;;;11372369;25;20013;-62
2024/04/14 19:22:39;;;;;;;5.75;1.27;;;;;;;;;;11378879;25;20028;-60
2024/04/14 19:27:48;;;;;;;6.38;1.70;;;;;;;;;;11385989;25;20551;-62
2024/04/14 19:32:59;;;;;;;6.47;1.50;;;;;;;;;;11371103;25;20094;-62
2024/04/14 19:38:16;;;;;;;8.82;1.95;;;;;;;;;;11369662;25;20017;-63
2024/04/14 19:43:25;;;;;;;13.32;1.48;;;;;;;;;;11372351;25;20005;-61
2024/04/14 19:48:29;;;;;;;8.25;1.10;;;;;;;;;;11372122;25;20012;-61
2024/04/14 19:53:37;;;;;;;7.38;1.98;;;;;;;;;;11383487;25;20317;-62
2024/04/14 19:58:42;;;;;;;10.40;2.45;;;;;;;;;;11376705;25;20013;-61
2024/04/14 20:03:46;;;;;;;9.52;1.60;;;;;;;;;;11391320;25;20068;-62
2024/04/14 20:08:54;;;;;;;3.67;1.40;;;;;;;;;;11383457;25;20004;-63
2024/04/14 20:13:58;;;;;;;8.02;2.00;;;;;;;;;;11384650;25;20446;-61
2024/04/14 20:19:06;;;;;;;8.35;2.20;;;;;;;;;;11388592;25;20024;-62
2024/04/14 20:24:13;;;;;;;8.27;1.92;;;;;;;;;;11387174;25;20083;-60
2024/04/14 20:29:20;;;;;;;10.65;2.42;;;;;;;;;;11376403;25;20400;-60
2024/04/14 20:34:25;;;;;;;9.63;1.35;;;;;;;;;;11384729;25;20005;-61
2024/04/14 20:39:34;;;;;;;5.13;1.10;;;;;;;;;;11387443;25;20006;-61
2024/04/14 20:44:38;;;;;;;7.90;1.45;;;;;;;;;;11382411;25;20018;-61
2024/04/14 20:49:43;;;;;;;8.35;1.35;;;;;;;;;;11377702;25;20009;-63
2024/04/14 20:54:54;;;;;;;6.70;1.75;;;;;;;;;;11377621;25;20006;-61
2024/04/14 20:59:59;;;;;;;6.93;1.50;;;;;;;;;;11382145;25;20017;-61
2024/04/14 21:05:04;;;;;;;8.18;1.80;;;;;;;;;;11378702;25;20016;-61
2024/04/14 21:10:11;;;;;;;10.10;2.35;;;;;;;;;;11392131;25;20110;-61
2024/04/14 21:15:16;;;;;;;5.82;1.30;;;;;;;;;;11401205;25;20006;-61
2024/04/14 21:20:23;;;;;;;7.60;1.63;;;;;;;;;;11414756;25;20008;-62
2024/04/14 21:25:30;;;;;;;4.88;1.65;;;;;;;;;;11406593;25;20009;-60
2024/04/14 21:30:34;;;;;;;6.97;1.50;;;;;;;;;;11407633;25;20143;-61
2024/04/14 21:35:39;;;;;;;8.93;1.83;;;;;;;;;;11399229;25;20024;-61
2024/04/14 21:40:51;;;;;;;6.93;1.45;;;;;;;;;;11406950;25;20797;-61
2024/04/14 21:45:58;;;;;;;6.38;1.85;;;;;;;;;;11409536;25;20353;-59
2024/04/14 21:51:03;;;;;;;2.85;0.95;;;;;;;;;;11407109;25;20025;-62
2024/04/14 21:56:13;;;;;;;6.40;1.80;;;;;;;;;;11381137;25;20019;-61
2024/04/14 22:01:19;;;;;;;14.60;1.90;;;;;;;;;;11399177;25;20079;-61
2024/04/14 22:06:24;;;;;;;8.23;1.65;;;;;;;;;;11396929;25;20021;-60
2024/04/14 22:11:31;;;;;;;6.45;2.13;;;;;;;;;;11404801;25;20634;-62
2024/04/14 22:16:41;;;;;;;4.63;1.52;;;;;;;;;;11409944;25;20053;-62
2024/04/14 22:21:49;;;;;;;6.90;1.85;;;;;;;;;;11397570;25;20922;-61
2024/04/14 22:26:57;;;;;;;10.45;2.00;;;;;;;;;;11399914;25;20018;-62
2024/04/14 22:32:02;;;;;;;13.40;2.67;;;;;;;;;;11407292;25;20743;-60
2024/04/14 22:37:09;;;;;;;9.63;1.63;;;;;;;;;;11396448;25;20017;-61
2024/04/14 22:42:18;;;;;;;9.05;2.28;;;;;;;;;;11394124;25;20029;-62
2024/04/14 22:47:24;;;;;;;13.35;2.05;;;;;;;;;;11395890;25;20031;-62
2024/04/14 22:52:29;;;;;;;8.23;1.35;;;;;;;;;;11387444;25;20016;-63
2024/04/14 22:57:36;;;;;;;13.38;1.90;;;;;;;;;;11411993;25;20017;-61
2024/04/14 23:02:40;;;;;;;10.65;2.03;;;;;;;;;;11397284;25;20036;-62
2024/04/14 23:07:45;;;;;;;13.90;2.10;;;;;;;;;;11397481;25;20012;-61
2024/04/14 23:12:54;;;;;;;12.65;2.38;;;;;;;;;;11401292;25;20393;-62
2024/04/14 23:18:09;;;;;;;7.38;1.52;;;;;;;;;;11404077;25;20465;-61
2024/04/14 23:23:16;;;;;;;19.48;2.85;;;;;;;;;;11398291;25;20057;-61
2024/04/14 23:28:23;;;;;;;22.83;2.13;;;;;;;;;;11393835;25;20015;-61
2024/04/14 23:33:33;;;;;;;10.02;1.90;;;;;;;;;;11408338;25;20080;-60
2024/04/14 23:38:40;;;;;;;14.35;2.17;;;;;;;;;;11404028;25;20005;-62
2024/04/14 23:43:48;;;;;;;19.98;2.33;;;;;;;;;;11405072;25;20616;-62
2024/04/14 23:48:52;;;;;;;11.45;2.25;;;;;;;;;;11409521;25;20042;-61
2024/04/14 23:54:00;;;;;;;22.25;2.67;;;;;;;;;;11392246;25;20006;-61
2024/04/14 23:59:10;;;;;;;15.05;2.08;;;;;;;;;;11396757;25;20021;-62
